sensor_id;sensor_type;location;lat;lon;timestamp;temperature;humidity
7254;DHT22;4060;49.186;9.226;2022-08-21T00:01:28;26.60;40.30
7254;DHT22;4060;49.186;9.226;2022-08-21T00:03:58;26.60;40.30
7254;DHT22;4060;49.186;9.226;2022-08-21T00:06:33;26.60;40.30
7254;DHT22;4060;49.186;9.226;2022-08-21T00:09:06;26.50;40.40
7254;DHT22;4060;49.186;9.226;2022-08-21T00:11:38;26.50;40.50
7254;DHT22;4060;49.186;9.226;2022-08-21T00:14:08;26.50;40.40
7254;DHT22;4060;49.186;9.226;2022-08-21T00:16:38;26.50;40.50
7254;DHT22;4060;49.186;9.226;2022-08-21T00:19:08;26.50;40.60
7254;DHT22;4060;49.186;9.226;2022-08-21T00:21:38;26.40;40.50
7254;DHT22;4060;49.186;9.226;2022-08-21T00:24:10;26.40;40.60
7254;DHT22;4060;49.186;9.226;2022-08-21T00:26:40;26.40;40.60
7254;DHT22;4060;49.186;9.226;2022-08-21T00:29:12;26.40;40.70
7254;DHT22;4060;49.186;9.226;2022-08-21T00:31:43;26.40;40.70
7254;DHT22;4060;49.186;9.226;2022-08-21T00:34:13;26.30;40.70
7254;DHT22;4060;49.186;9.226;2022-08-21T00:36:43;26.30;40.80
7254;DHT22;4060;49.186;9.226;2022-08-21T00:39:15;26.30;40.80
7254;DHT22;4060;49.186;9.226;2022-08-21T00:41:44;26.20;40.80
7254;DHT22;4060;49.186;9.226;2022-08-21T00:44:15;26.20;40.80
7254;DHT22;4060;49.186;9.226;2022-08-21T00:46:44;26.20;40.90
7254;DHT22;4060;49.186;9.226;2022-08-21T00:49:14;26.20;40.90
7254;DHT22;4060;49.186;9.226;2022-08-21T00:51:47;26.20;40.90
7254;DHT22;4060;49.186;9.226;2022-08-21T00:54:20;26.10;40.90
7254;DHT22;4060;49.186;9.226;2022-08-21T00:56:55;26.10;40.90
7254;DHT22;4060;49.186;9.226;2022-08-21T00:59:28;26.10;41.00
7254;DHT22;4060;49.186;9.226;2022-08-21T01:01:59;26.10;41.00
7254;DHT22;4060;49.186;9.226;2022-08-21T01:04:29;26.00;41.00
7254;DHT22;4060;49.186;9.226;2022-08-21T01:06:59;26.00;41.10
7254;DHT22;4060;49.186;9.226;2022-08-21T01:09:31;26.00;41.20
7254;DHT22;4060;49.186;9.226;2022-08-21T01:12:02;26.00;41.20
7254;DHT22;4060;49.186;9.226;2022-08-21T01:14:33;25.90;41.20
7254;DHT22;4060;49.186;9.226;2022-08-21T01:17:03;25.90;41.20
7254;DHT22;4060;49.186;9.226;2022-08-21T01:19:33;25.90;41.20
7254;DHT22;4060;49.186;9.226;2022-08-21T01:22:05;25.90;41.20
7254;DHT22;4060;49.186;9.226;2022-08-21T01:24:34;25.80;41.20
7254;DHT22;4060;49.186;9.226;2022-08-21T01:27:04;25.80;41.20
7254;DHT22;4060;49.186;9.226;2022-08-21T01:29:37;25.80;41.20
7254;DHT22;4060;49.186;9.226;2022-08-21T01:32:11;25.80;41.30
7254;DHT22;4060;49.186;9.226;2022-08-21T01:34:44;25.70;41.30
7254;DHT22;4060;49.186;9.226;2022-08-21T01:37:17;25.70;41.30
7254;DHT22;4060;49.186;9.226;2022-08-21T01:39:47;25.70;41.40
7254;DHT22;4060;49.186;9.226;2022-08-21T01:42:17;25.70;41.40
7254;DHT22;4060;49.186;9.226;2022-08-21T01:44:47;25.60;41.40
7254;DHT22;4060;49.186;9.226;2022-08-21T01:47:17;25.60;41.50
7254;DHT22;4060;49.186;9.226;2022-08-21T01:49:46;25.60;41.60
7254;DHT22;4060;49.186;9.226;2022-08-21T01:52:18;25.60;41.60
7254;DHT22;4060;49.186;9.226;2022-08-21T01:54:47;25.60;41.70
7254;DHT22;4060;49.186;9.226;2022-08-21T01:57:17;25.50;41.70
7254;DHT22;4060;49.186;9.226;2022-08-21T01:59:46;25.50;41.70
7254;DHT22;4060;49.186;9.226;2022-08-21T02:02:16;25.50;41.80
7254;DHT22;4060;49.186;9.226;2022-08-21T02:04:45;25.50;41.80
7254;DHT22;4060;49.186;9.226;2022-08-21T02:07:17;25.40;41.90
7254;DHT22;4060;49.186;9.226;2022-08-21T02:09:46;25.40;41.90
7254;DHT22;4060;49.186;9.226;2022-08-21T02:12:16;25.40;41.90
7254;DHT22;4060;49.186;9.226;2022-08-21T02:14:45;25.40;41.90
7254;DHT22;4060;49.186;9.226;2022-08-21T02:17:15;25.40;42.50
7254;DHT22;4060;49.186;9.226;2022-08-21T02:19:44;25.30;42.00
7254;DHT22;4060;49.186;9.226;2022-08-21T02:22:14;25.30;42.00
7254;DHT22;4060;49.186;9.226;2022-08-21T02:24:45;25.30;42.00
7254;DHT22;4060;49.186;9.226;2022-08-21T02:27:14;25.30;42.10
7254;DHT22;4060;49.186;9.226;2022-08-21T02:29:44;25.30;42.10
7254;DHT22;4060;49.186;9.226;2022-08-21T02:32:14;25.20;42.10
7254;DHT22;4060;49.186;9.226;2022-08-21T02:34:43;25.20;42.10
7254;DHT22;4060;49.186;9.226;2022-08-21T02:37:13;25.20;42.20
7254;DHT22;4060;49.186;9.226;2022-08-21T02:39:44;25.10;42.10
7254;DHT22;4060;49.186;9.226;2022-08-21T02:42:14;25.10;42.20
7254;DHT22;4060;49.186;9.226;2022-08-21T02:44:44;25.10;42.20
7254;DHT22;4060;49.186;9.226;2022-08-21T02:47:14;25.10;42.30
7254;DHT22;4060;49.186;9.226;2022-08-21T02:49:44;25.10;42.30
7254;DHT22;4060;49.186;9.226;2022-08-21T02:52:13;25.00;42.30
7254;DHT22;4060;49.186;9.226;2022-08-21T02:54:44;25.00;42.40
7254;DHT22;4060;49.186;9.226;2022-08-21T02:57:14;25.00;42.40
7254;DHT22;4060;49.186;9.226;2022-08-21T02:59:44;25.00;42.40
7254;DHT22;4060;49.186;9.226;2022-08-21T03:02:14;24.90;42.30
7254;DHT22;4060;49.186;9.226;2022-08-21T03:04:44;24.90;42.40
7254;DHT22;4060;49.186;9.226;2022-08-21T03:07:13;24.90;42.40
7254;DHT22;4060;49.186;9.226;2022-08-21T03:09:45;24.90;42.40
7254;DHT22;4060;49.186;9.226;2022-08-21T03:12:15;24.80;42.40
7254;DHT22;4060;49.186;9.226;2022-08-21T03:14:45;24.80;42.40
7254;DHT22;4060;49.186;9.226;2022-08-21T03:17:14;24.80;42.50
7254;DHT22;4060;49.186;9.226;2022-08-21T03:19:44;24.80;42.50
7254;DHT22;4060;49.186;9.226;2022-08-21T03:22:13;24.80;42.60
7254;DHT22;4060;49.186;9.226;2022-08-21T03:24:42;24.70;42.60
7254;DHT22;4060;49.186;9.226;2022-08-21T03:27:14;24.70;42.60
7254;DHT22;4060;49.186;9.226;2022-08-21T03:29:44;24.70;42.60
7254;DHT22;4060;49.186;9.226;2022-08-21T03:32:14;24.70;42.70
7254;DHT22;4060;49.186;9.226;2022-08-21T03:34:43;24.60;42.70
7254;DHT22;4060;49.186;9.226;2022-08-21T03:37:14;24.60;42.70
7254;DHT22;4060;49.186;9.226;2022-08-21T03:39:44;24.60;42.70
7254;DHT22;4060;49.186;9.226;2022-08-21T03:42:16;24.60;42.70
7254;DHT22;4060;49.186;9.226;2022-08-21T03:44:46;24.60;42.80
7254;DHT22;4060;49.186;9.226;2022-08-21T03:47:16;24.50;42.80
7254;DHT22;4060;49.186;9.226;2022-08-21T03:49:46;24.50;42.90
7254;DHT22;4060;49.186;9.226;2022-08-21T03:52:16;24.50;42.90
7254;DHT22;4060;49.186;9.226;2022-08-21T03:54:46;24.50;42.90
7254;DHT22;4060;49.186;9.226;2022-08-21T03:57:17;24.50;43.00
7254;DHT22;4060;49.186;9.226;2022-08-21T03:59:47;24.40;43.00
7254;DHT22;4060;49.186;9.226;2022-08-21T04:02:19;24.40;43.00
7254;DHT22;4060;49.186;9.226;2022-08-21T04:04:50;24.40;43.00
7254;DHT22;4060;49.186;9.226;2022-08-21T04:07:19;24.40;43.10
7254;DHT22;4060;49.186;9.226;2022-08-21T04:09:49;24.40;43.10
7254;DHT22;4060;49.186;9.226;2022-08-21T04:12:21;24.30;43.10
7254;DHT22;4060;49.186;9.226;2022-08-21T04:14:51;24.30;43.20
7254;DHT22;4060;49.186;9.226;2022-08-21T04:17:20;24.30;43.20
7254;DHT22;4060;49.186;9.226;2022-08-21T04:19:50;24.30;43.20
7254;DHT22;4060;49.186;9.226;2022-08-21T04:22:19;24.30;43.30
7254;DHT22;4060;49.186;9.226;2022-08-21T04:24:49;24.20;43.20
7254;DHT22;4060;49.186;9.226;2022-08-21T04:27:20;24.20;43.20
7254;DHT22;4060;49.186;9.226;2022-08-21T04:29:50;24.20;43.30
7254;DHT22;4060;49.186;9.226;2022-08-21T04:32:23;24.20;43.30
7254;DHT22;4060;49.186;9.226;2022-08-21T04:35:00;24.20;43.30
7254;DHT22;4060;49.186;9.226;2022-08-21T04:37:31;24.10;43.30
7254;DHT22;4060;49.186;9.226;2022-08-21T04:40:00;24.10;43.30
7254;DHT22;4060;49.186;9.226;2022-08-21T04:42:31;24.10;43.30
7254;DHT22;4060;49.186;9.226;2022-08-21T04:45:00;24.10;43.40
7254;DHT22;4060;49.186;9.226;2022-08-21T04:47:30;24.10;43.50
7254;DHT22;4060;49.186;9.226;2022-08-21T04:50:04;24.00;43.40
7254;DHT22;4060;49.186;9.226;2022-08-21T04:52:34;24.00;43.40
7254;DHT22;4060;49.186;9.226;2022-08-21T04:55:04;24.00;43.40
7254;DHT22;4060;49.186;9.226;2022-08-21T04:57:38;24.00;43.50
7254;DHT22;4060;49.186;9.226;2022-08-21T05:00:11;24.00;43.60
7254;DHT22;4060;49.186;9.226;2022-08-21T05:02:42;23.90;43.50
7254;DHT22;4060;49.186;9.226;2022-08-21T05:05:14;23.90;43.60
7254;DHT22;4060;49.186;9.226;2022-08-21T05:07:45;23.90;43.60
7254;DHT22;4060;49.186;9.226;2022-08-21T05:10:15;23.90;43.60
7254;DHT22;4060;49.186;9.226;2022-08-21T05:12:46;23.80;43.60
7254;DHT22;4060;49.186;9.226;2022-08-21T05:15:16;23.80;43.60
7254;DHT22;4060;49.186;9.226;2022-08-21T05:17:45;23.80;43.70
7254;DHT22;4060;49.186;9.226;2022-08-21T05:20:15;23.80;43.70
7254;DHT22;4060;49.186;9.226;2022-08-21T05:22:44;23.80;43.70
7254;DHT22;4060;49.186;9.226;2022-08-21T05:25:14;23.80;43.80
7254;DHT22;4060;49.186;9.226;2022-08-21T05:27:46;23.80;43.80
7254;DHT22;4060;49.186;9.226;2022-08-21T05:30:15;23.80;43.90
7254;DHT22;4060;49.186;9.226;2022-08-21T05:32:45;23.80;44.50
7254;DHT22;4060;49.186;9.226;2022-08-21T05:35:15;23.80;44.10
7254;DHT22;4060;49.186;9.226;2022-08-21T05:37:45;23.80;44.20
7254;DHT22;4060;49.186;9.226;2022-08-21T05:40:14;23.70;44.20
7254;DHT22;4060;49.186;9.226;2022-08-21T05:42:47;23.70;44.20
7254;DHT22;4060;49.186;9.226;2022-08-21T05:45:17;23.70;44.30
7254;DHT22;4060;49.186;9.226;2022-08-21T05:47:46;23.70;44.40
7254;DHT22;4060;49.186;9.226;2022-08-21T05:50:16;23.70;44.50
7254;DHT22;4060;49.186;9.226;2022-08-21T05:52:45;23.80;44.60
7254;DHT22;4060;49.186;9.226;2022-08-21T05:55:15;23.80;44.70
7254;DHT22;4060;49.186;9.226;2022-08-21T05:57:46;23.80;44.90
7254;DHT22;4060;49.186;9.226;2022-08-21T06:00:16;23.80;45.00
7254;DHT22;4060;49.186;9.226;2022-08-21T06:02:46;23.80;45.10
7254;DHT22;4060;49.186;9.226;2022-08-21T06:05:17;23.80;45.20
7254;DHT22;4060;49.186;9.226;2022-08-21T06:07:47;23.80;45.20
7254;DHT22;4060;49.186;9.226;2022-08-21T06:10:16;23.80;45.30
7254;DHT22;4060;49.186;9.226;2022-08-21T06:12:54;23.80;45.40
7254;DHT22;4060;49.186;9.226;2022-08-21T06:15:24;23.90;45.60
7254;DHT22;4060;49.186;9.226;2022-08-21T06:17:54;23.90;45.70
7254;DHT22;4060;49.186;9.226;2022-08-21T06:20:24;23.90;45.70
7254;DHT22;4060;49.186;9.226;2022-08-21T06:22:53;24.00;45.90
7254;DHT22;4060;49.186;9.226;2022-08-21T06:25:23;24.00;46.00
7254;DHT22;4060;49.186;9.226;2022-08-21T06:28:01;24.00;46.00
7254;DHT22;4060;49.186;9.226;2022-08-21T06:30:32;24.00;46.70
7254;DHT22;4060;49.186;9.226;2022-08-21T06:33:03;24.00;46.10
7254;DHT22;4060;49.186;9.226;2022-08-21T06:35:33;24.10;46.30
7254;DHT22;4060;49.186;9.226;2022-08-21T06:38:03;24.10;46.30
7254;DHT22;4060;49.186;9.226;2022-08-21T06:40:32;24.10;46.30
7254;DHT22;4060;49.186;9.226;2022-08-21T06:43:09;24.20;46.40
7254;DHT22;4060;49.186;9.226;2022-08-21T06:45:39;24.20;46.50
7254;DHT22;4060;49.186;9.226;2022-08-21T06:48:09;24.20;46.90
7254;DHT22;4060;49.186;9.226;2022-08-21T06:50:38;24.20;46.40
7254;DHT22;4060;49.186;9.226;2022-08-21T06:53:09;24.30;46.50
7254;DHT22;4060;49.186;9.226;2022-08-21T06:55:39;24.30;46.50
7254;DHT22;4060;49.186;9.226;2022-08-21T06:58:11;24.30;46.50
7254;DHT22;4060;49.186;9.226;2022-08-21T07:00:42;24.40;46.60
7254;DHT22;4060;49.186;9.226;2022-08-21T07:03:22;24.40;46.60
7254;DHT22;4060;49.186;9.226;2022-08-21T07:05:52;24.40;46.60
7254;DHT22;4060;49.186;9.226;2022-08-21T07:08:24;24.40;46.60
7254;DHT22;4060;49.186;9.226;2022-08-21T07:10:55;24.40;46.60
7254;DHT22;4060;49.186;9.226;2022-08-21T07:13:27;24.50;46.70
7254;DHT22;4060;49.186;9.226;2022-08-21T07:15:56;24.50;46.70
7254;DHT22;4060;49.186;9.226;2022-08-21T07:18:26;24.50;46.70
7254;DHT22;4060;49.186;9.226;2022-08-21T07:20:56;24.50;46.70
7254;DHT22;4060;49.186;9.226;2022-08-21T07:23:29;24.60;46.80
7254;DHT22;4060;49.186;9.226;2022-08-21T07:25:59;24.60;46.70
7254;DHT22;4060;49.186;9.226;2022-08-21T07:28:32;24.60;46.70
7254;DHT22;4060;49.186;9.226;2022-08-21T07:31:02;24.60;46.70
7254;DHT22;4060;49.186;9.226;2022-08-21T07:33:33;24.60;46.70
7254;DHT22;4060;49.186;9.226;2022-08-21T07:36:04;24.70;46.70
7254;DHT22;4060;49.186;9.226;2022-08-21T07:38:34;24.70;46.80
7254;DHT22;4060;49.186;9.226;2022-08-21T07:41:12;24.70;46.70
7254;DHT22;4060;49.186;9.226;2022-08-21T07:43:44;24.70;46.70
7254;DHT22;4060;49.186;9.226;2022-08-21T07:46:14;24.80;46.80
7254;DHT22;4060;49.186;9.226;2022-08-21T07:48:44;24.80;46.80
7254;DHT22;4060;49.186;9.226;2022-08-21T07:51:14;24.80;46.80
7254;DHT22;4060;49.186;9.226;2022-08-21T07:53:49;24.80;46.80
7254;DHT22;4060;49.186;9.226;2022-08-21T07:56:19;24.80;46.80
7254;DHT22;4060;49.186;9.226;2022-08-21T07:58:51;24.80;46.80
7254;DHT22;4060;49.186;9.226;2022-08-21T08:01:21;24.80;46.80
7254;DHT22;4060;49.186;9.226;2022-08-21T08:03:51;24.80;46.90
7254;DHT22;4060;49.186;9.226;2022-08-21T08:06:21;24.90;46.90
7254;DHT22;4060;49.186;9.226;2022-08-21T08:08:51;24.90;46.90
7254;DHT22;4060;49.186;9.226;2022-08-21T08:11:21;24.90;46.90
7254;DHT22;4060;49.186;9.226;2022-08-21T08:13:53;24.90;46.90
7254;DHT22;4060;49.186;9.226;2022-08-21T08:16:24;24.90;46.90
7254;DHT22;4060;49.186;9.226;2022-08-21T08:18:54;25.00;47.00
7254;DHT22;4060;49.186;9.226;2022-08-21T08:21:23;25.00;47.00
7254;DHT22;4060;49.186;9.226;2022-08-21T08:23:52;25.00;47.00
7254;DHT22;4060;49.186;9.226;2022-08-21T08:26:22;25.10;47.00
7254;DHT22;4060;49.186;9.226;2022-08-21T08:28:52;25.10;47.00
7254;DHT22;4060;49.186;9.226;2022-08-21T08:31:22;25.10;47.00
7254;DHT22;4060;49.186;9.226;2022-08-21T08:33:51;25.10;46.90
7254;DHT22;4060;49.186;9.226;2022-08-21T08:36:20;25.10;46.90
7254;DHT22;4060;49.186;9.226;2022-08-21T08:39:00;25.20;47.00
7254;DHT22;4060;49.186;9.226;2022-08-21T08:41:29;25.20;47.00
7254;DHT22;4060;49.186;9.226;2022-08-21T08:44:04;25.20;47.00
7254;DHT22;4060;49.186;9.226;2022-08-21T08:46:37;25.30;47.10
7254;DHT22;4060;49.186;9.226;2022-08-21T08:49:13;25.30;47.10
7254;DHT22;4060;49.186;9.226;2022-08-21T08:51:48;25.30;47.00
7254;DHT22;4060;49.186;9.226;2022-08-21T08:54:25;25.30;47.00
7254;DHT22;4060;49.186;9.226;2022-08-21T08:56:59;25.30;47.00
7254;DHT22;4060;49.186;9.226;2022-08-21T08:59:38;25.40;47.00
7254;DHT22;4060;49.186;9.226;2022-08-21T09:02:11;25.40;47.10
7254;DHT22;4060;49.186;9.226;2022-08-21T09:04:41;25.40;47.00
7254;DHT22;4060;49.186;9.226;2022-08-21T09:07:20;25.40;47.00
7254;DHT22;4060;49.186;9.226;2022-08-21T09:10:04;25.50;47.00
7254;DHT22;4060;49.186;9.226;2022-08-21T09:12:42;25.50;47.00
7254;DHT22;4060;49.186;9.226;2022-08-21T09:15:25;25.50;47.20
7254;DHT22;4060;49.186;9.226;2022-08-21T09:18:27;25.50;46.80
7254;DHT22;4060;49.186;9.226;2022-08-21T09:21:07;25.60;46.80
7254;DHT22;4060;49.186;9.226;2022-08-21T09:23:46;25.60;46.80
7254;DHT22;4060;49.186;9.226;2022-08-21T09:26:17;25.60;46.70
7254;DHT22;4060;49.186;9.226;2022-08-21T09:28:53;25.60;46.60
7254;DHT22;4060;49.186;9.226;2022-08-21T09:31:26;25.70;46.60
7254;DHT22;4060;49.186;9.226;2022-08-21T09:34:01;25.70;46.50
7254;DHT22;4060;49.186;9.226;2022-08-21T09:36:37;25.80;46.50
7254;DHT22;4060;49.186;9.226;2022-08-21T09:39:08;25.80;46.40
7254;DHT22;4060;49.186;9.226;2022-08-21T09:41:39;25.80;46.40
7254;DHT22;4060;49.186;9.226;2022-08-21T09:44:09;25.80;46.30
7254;DHT22;4060;49.186;9.226;2022-08-21T09:46:51;25.80;46.20
7254;DHT22;4060;49.186;9.226;2022-08-21T09:49:28;25.90;46.20
7254;DHT22;4060;49.186;9.226;2022-08-21T09:51:58;25.90;46.00
7254;DHT22;4060;49.186;9.226;2022-08-21T09:54:31;25.90;45.90
7254;DHT22;4060;49.186;9.226;2022-08-21T09:57:05;26.00;45.80
7254;DHT22;4060;49.186;9.226;2022-08-21T10:00:24;26.00;45.70
7254;DHT22;4060;49.186;9.226;2022-08-21T10:03:09;26.00;45.60
7254;DHT22;4060;49.186;9.226;2022-08-21T10:05:40;26.00;45.40
7254;DHT22;4060;49.186;9.226;2022-08-21T10:08:21;26.10;45.30
7254;DHT22;4060;49.186;9.226;2022-08-21T10:10:54;26.10;45.00
7254;DHT22;4060;49.186;9.226;2022-08-21T10:13:35;26.10;44.70
7254;DHT22;4060;49.186;9.226;2022-08-21T10:16:22;26.10;44.40
7254;DHT22;4060;49.186;9.226;2022-08-21T10:19:12;26.20;44.50
7254;DHT22;4060;49.186;9.226;2022-08-21T10:21:58;26.20;43.90
7254;DHT22;4060;49.186;9.226;2022-08-21T10:24:32;26.20;43.80
7254;DHT22;4060;49.186;9.226;2022-08-21T10:27:12;26.30;43.80
7254;DHT22;4060;49.186;9.226;2022-08-21T10:29:50;26.30;43.70
7254;DHT22;4060;49.186;9.226;2022-08-21T10:32:36;26.30;43.80
7254;DHT22;4060;49.186;9.226;2022-08-21T10:35:13;26.30;43.70
7254;DHT22;4060;49.186;9.226;2022-08-21T10:37:55;26.40;43.50
7254;DHT22;4060;49.186;9.226;2022-08-21T10:40:31;26.40;43.30
7254;DHT22;4060;49.186;9.226;2022-08-21T10:43:15;26.40;43.20
7254;DHT22;4060;49.186;9.226;2022-08-21T10:45:54;26.50;43.10
7254;DHT22;4060;49.186;9.226;2022-08-21T10:48:37;26.50;43.60
7254;DHT22;4060;49.186;9.226;2022-08-21T10:51:16;26.60;43.00
7254;DHT22;4060;49.186;9.226;2022-08-21T10:53:55;26.60;42.80
7254;DHT22;4060;49.186;9.226;2022-08-21T10:56:28;26.60;42.60
7254;DHT22;4060;49.186;9.226;2022-08-21T10:59:07;26.60;42.60
7254;DHT22;4060;49.186;9.226;2022-08-21T11:01:46;26.70;42.40
7254;DHT22;4060;49.186;9.226;2022-08-21T11:04:21;26.70;42.30
7254;DHT22;4060;49.186;9.226;2022-08-21T11:07:02;26.70;42.20
7254;DHT22;4060;49.186;9.226;2022-08-21T11:09:33;26.70;42.10
7254;DHT22;4060;49.186;9.226;2022-08-21T11:12:09;26.80;42.00
7254;DHT22;4060;49.186;9.226;2022-08-21T11:14:49;26.80;41.80
7254;DHT22;4060;49.186;9.226;2022-08-21T11:17:26;26.90;41.80
7254;DHT22;4060;49.186;9.226;2022-08-21T11:20:04;26.90;41.90
7254;DHT22;4060;49.186;9.226;2022-08-21T11:22:46;26.90;41.80
7254;DHT22;4060;49.186;9.226;2022-08-21T11:25:22;27.00;41.70
7254;DHT22;4060;49.186;9.226;2022-08-21T11:27:56;27.00;41.50
7254;DHT22;4060;49.186;9.226;2022-08-21T11:30:31;27.00;41.50
7254;DHT22;4060;49.186;9.226;2022-08-21T11:33:16;27.00;41.50
7254;DHT22;4060;49.186;9.226;2022-08-21T11:35:55;27.10;41.50
7254;DHT22;4060;49.186;9.226;2022-08-21T11:38:38;27.10;41.40
7254;DHT22;4060;49.186;9.226;2022-08-21T11:41:25;27.20;41.40
7254;DHT22;4060;49.186;9.226;2022-08-21T11:44:04;27.20;41.20
7254;DHT22;4060;49.186;9.226;2022-08-21T11:46:48;27.20;41.20
7254;DHT22;4060;49.186;9.226;2022-08-21T11:49:45;27.30;41.00
7254;DHT22;4060;49.186;9.226;2022-08-21T11:52:20;27.30;40.80
7254;DHT22;4060;49.186;9.226;2022-08-21T11:54:56;27.30;40.80
7254;DHT22;4060;49.186;9.226;2022-08-21T11:57:29;27.40;40.70
7254;DHT22;4060;49.186;9.226;2022-08-21T12:00:04;27.40;40.60
7254;DHT22;4060;49.186;9.226;2022-08-21T12:02:38;27.40;40.50
7254;DHT22;4060;49.186;9.226;2022-08-21T12:05:10;27.50;40.60
7254;DHT22;4060;49.186;9.226;2022-08-21T12:07:42;27.50;40.50
7254;DHT22;4060;49.186;9.226;2022-08-21T12:10:17;27.60;40.90
7254;DHT22;4060;49.186;9.226;2022-08-21T12:12:48;27.60;40.20
7254;DHT22;4060;49.186;9.226;2022-08-21T12:15:26;27.60;40.10
7254;DHT22;4060;49.186;9.226;2022-08-21T12:17:59;27.70;39.80
7254;DHT22;4060;49.186;9.226;2022-08-21T12:20:41;27.70;39.70
7254;DHT22;4060;49.186;9.226;2022-08-21T12:23:29;27.70;39.40
7254;DHT22;4060;49.186;9.226;2022-08-21T12:26:26;27.80;39.30
7254;DHT22;4060;49.186;9.226;2022-08-21T12:29:16;27.80;39.30
7254;DHT22;4060;49.186;9.226;2022-08-21T12:31:54;27.80;39.00
7254;DHT22;4060;49.186;9.226;2022-08-21T12:34:33;27.90;39.10
7254;DHT22;4060;49.186;9.226;2022-08-21T12:37:06;27.90;38.90
7254;DHT22;4060;49.186;9.226;2022-08-21T12:39:44;27.90;38.90
7254;DHT22;4060;49.186;9.226;2022-08-21T12:42:21;28.00;39.00
7254;DHT22;4060;49.186;9.226;2022-08-21T12:44:55;28.00;39.00
7254;DHT22;4060;49.186;9.226;2022-08-21T12:47:29;28.00;38.80
7254;DHT22;4060;49.186;9.226;2022-08-21T12:50:04;28.00;38.70
7254;DHT22;4060;49.186;9.226;2022-08-21T12:52:38;28.10;38.70
7254;DHT22;4060;49.186;9.226;2022-08-21T12:55:12;28.10;38.50
7254;DHT22;4060;49.186;9.226;2022-08-21T12:57:44;28.10;38.40
7254;DHT22;4060;49.186;9.226;2022-08-21T13:00:20;28.10;38.30
7254;DHT22;4060;49.186;9.226;2022-08-21T13:02:51;28.10;38.50
7254;DHT22;4060;49.186;9.226;2022-08-21T13:05:28;28.20;38.20
7254;DHT22;4060;49.186;9.226;2022-08-21T13:07:58;28.20;38.00
7254;DHT22;4060;49.186;9.226;2022-08-21T13:10:30;28.20;38.00
7254;DHT22;4060;49.186;9.226;2022-08-21T13:13:05;28.20;37.90
7254;DHT22;4060;49.186;9.226;2022-08-21T13:15:37;28.30;37.80
7254;DHT22;4060;49.186;9.226;2022-08-21T13:18:08;28.30;37.60
7254;DHT22;4060;49.186;9.226;2022-08-21T13:20:38;28.30;37.40
7254;DHT22;4060;49.186;9.226;2022-08-21T13:23:20;28.30;37.40
7254;DHT22;4060;49.186;9.226;2022-08-21T13:25:51;28.40;37.30
7254;DHT22;4060;49.186;9.226;2022-08-21T13:28:23;28.40;37.20
7254;DHT22;4060;49.186;9.226;2022-08-21T13:30:54;28.40;37.00
7254;DHT22;4060;49.186;9.226;2022-08-21T13:33:26;28.40;36.90
7254;DHT22;4060;49.186;9.226;2022-08-21T13:36:07;28.50;36.90
7254;DHT22;4060;49.186;9.226;2022-08-21T13:38:40;28.50;36.70
7254;DHT22;4060;49.186;9.226;2022-08-21T13:41:19;28.60;36.70
7254;DHT22;4060;49.186;9.226;2022-08-21T13:43:58;28.60;36.50
7254;DHT22;4060;49.186;9.226;2022-08-21T13:46:30;28.60;36.40
7254;DHT22;4060;49.186;9.226;2022-08-21T13:49:02;28.60;36.30
7254;DHT22;4060;49.186;9.226;2022-08-21T13:51:32;28.60;36.20
7254;DHT22;4060;49.186;9.226;2022-08-21T13:54:02;28.70;36.00
7254;DHT22;4060;49.186;9.226;2022-08-21T13:56:45;28.70;35.90
7254;DHT22;4060;49.186;9.226;2022-08-21T13:59:27;28.70;35.90
7254;DHT22;4060;49.186;9.226;2022-08-21T14:01:59;28.70;35.70
7254;DHT22;4060;49.186;9.226;2022-08-21T14:04:36;28.80;35.70
7254;DHT22;4060;49.186;9.226;2022-08-21T14:07:17;28.80;35.40
7254;DHT22;4060;49.186;9.226;2022-08-21T14:09:47;28.80;35.20
7254;DHT22;4060;49.186;9.226;2022-08-21T14:12:24;28.90;35.30
7254;DHT22;4060;49.186;9.226;2022-08-21T14:14:58;28.90;34.90
7254;DHT22;4060;49.186;9.226;2022-08-21T14:17:34;28.90;34.80
7254;DHT22;4060;49.186;9.226;2022-08-21T14:20:05;29.00;34.80
7254;DHT22;4060;49.186;9.226;2022-08-21T14:22:39;29.00;34.60
7254;DHT22;4060;49.186;9.226;2022-08-21T14:25:13;29.00;34.50
7254;DHT22;4060;49.186;9.226;2022-08-21T14:27:48;29.00;34.50
7254;DHT22;4060;49.186;9.226;2022-08-21T14:30:26;29.10;34.40
7254;DHT22;4060;49.186;9.226;2022-08-21T14:32:56;29.10;34.10
7254;DHT22;4060;49.186;9.226;2022-08-21T14:35:26;29.10;34.10
7254;DHT22;4060;49.186;9.226;2022-08-21T14:37:56;29.10;34.00
7254;DHT22;4060;49.186;9.226;2022-08-21T14:40:25;29.20;34.00
7254;DHT22;4060;49.186;9.226;2022-08-21T14:42:54;29.20;33.80
7254;DHT22;4060;49.186;9.226;2022-08-21T14:45:28;29.20;33.60
7254;DHT22;4060;49.186;9.226;2022-08-21T14:47:58;29.20;33.20
7254;DHT22;4060;49.186;9.226;2022-08-21T14:50:27;29.20;33.00
7254;DHT22;4060;49.186;9.226;2022-08-21T14:52:57;29.30;33.10
7254;DHT22;4060;49.186;9.226;2022-08-21T14:55:27;29.30;33.10
7254;DHT22;4060;49.186;9.226;2022-08-21T14:57:57;29.30;33.20
7254;DHT22;4060;49.186;9.226;2022-08-21T15:00:28;29.30;33.20
7254;DHT22;4060;49.186;9.226;2022-08-21T15:02:57;29.40;33.10
7254;DHT22;4060;49.186;9.226;2022-08-21T15:05:26;29.40;33.00
7254;DHT22;4060;49.186;9.226;2022-08-21T15:07:56;29.40;33.10
7254;DHT22;4060;49.186;9.226;2022-08-21T15:10:25;29.40;33.10
7254;DHT22;4060;49.186;9.226;2022-08-21T15:12:54;29.40;33.20
7254;DHT22;4060;49.186;9.226;2022-08-21T15:15:24;29.50;33.30
7254;DHT22;4060;49.186;9.226;2022-08-21T15:17:55;29.50;33.30
7254;DHT22;4060;49.186;9.226;2022-08-21T15:20:24;29.50;33.20
7254;DHT22;4060;49.186;9.226;2022-08-21T15:22:53;29.50;33.20
7254;DHT22;4060;49.186;9.226;2022-08-21T15:25:23;29.50;33.10
7254;DHT22;4060;49.186;9.226;2022-08-21T15:27:52;29.60;33.10
7254;DHT22;4060;49.186;9.226;2022-08-21T15:30:22;29.60;33.00
7254;DHT22;4060;49.186;9.226;2022-08-21T15:32:52;29.60;32.90
7254;DHT22;4060;49.186;9.226;2022-08-21T15:35:23;29.60;32.80
7254;DHT22;4060;49.186;9.226;2022-08-21T15:37:52;29.60;32.80
7254;DHT22;4060;49.186;9.226;2022-08-21T15:40:22;29.60;32.70
7254;DHT22;4060;49.186;9.226;2022-08-21T15:42:59;29.70;32.80
7254;DHT22;4060;49.186;9.226;2022-08-21T15:45:30;29.70;33.00
7254;DHT22;4060;49.186;9.226;2022-08-21T15:47:59;29.70;32.90
7254;DHT22;4060;49.186;9.226;2022-08-21T15:50:31;29.70;32.90
7254;DHT22;4060;49.186;9.226;2022-08-21T15:53:01;29.70;33.00
7254;DHT22;4060;49.186;9.226;2022-08-21T15:55:30;29.70;33.00
7254;DHT22;4060;49.186;9.226;2022-08-21T15:58:04;29.70;32.90
7254;DHT22;4060;49.186;9.226;2022-08-21T16:00:35;29.70;32.80
7254;DHT22;4060;49.186;9.226;2022-08-21T16:03:05;29.70;32.60
7254;DHT22;4060;49.186;9.226;2022-08-21T16:05:39;29.70;32.40
7254;DHT22;4060;49.186;9.226;2022-08-21T16:08:09;29.80;32.40
7254;DHT22;4060;49.186;9.226;2022-08-21T16:10:39;29.80;32.40
7254;DHT22;4060;49.186;9.226;2022-08-21T16:13:15;29.80;32.40
7254;DHT22;4060;49.186;9.226;2022-08-21T16:15:45;29.80;32.40
7254;DHT22;4060;49.186;9.226;2022-08-21T16:18:14;29.80;32.40
7254;DHT22;4060;49.186;9.226;2022-08-21T16:20:46;29.80;32.30
7254;DHT22;4060;49.186;9.226;2022-08-21T16:23:15;29.80;32.30
7254;DHT22;4060;49.186;9.226;2022-08-21T16:25:45;29.80;32.10
7254;DHT22;4060;49.186;9.226;2022-08-21T16:28:16;29.80;31.70
7254;DHT22;4060;49.186;9.226;2022-08-21T16:30:48;29.90;31.60
7254;DHT22;4060;49.186;9.226;2022-08-21T16:33:21;29.90;31.50
7254;DHT22;4060;49.186;9.226;2022-08-21T16:35:54;29.90;31.40
7254;DHT22;4060;49.186;9.226;2022-08-21T16:38:24;29.90;31.50